createdAt,value
2022-10-19T03:43:44.838Z,94.69
2022-10-19T03:46:47.914Z,94.69
2022-10-19T03:49:50.705Z,100.00
2022-10-19T03:52:55.221Z,100.00
2022-10-19T03:56:08.719Z,100.00
2022-10-19T03:59:14.642Z,98.87
2022-10-19T04:02:17.088Z,100.00
2022-10-19T04:05:19.871Z,100.00
2022-10-19T04:08:22.325Z,100.00
2022-10-19T04:11:27.775Z,100.00
2022-10-19T04:14:33.190Z,100.00
2022-10-19T04:17:43.810Z,100.00
2022-10-19T04:20:48.525Z,100.00
2022-10-19T04:23:53.544Z,100.00
2022-10-19T04:26:56.704Z,100.00
2022-10-19T04:29:59.512Z,100.00
2022-10-19T04:33:03.030Z,100.00
2022-10-19T04:36:08.382Z,100.00
2022-10-19T04:39:10.875Z,100.00
2022-10-19T04:42:13.613Z,100.00
2022-10-19T04:45:16.143Z,100.00
2022-10-19T04:48:18.882Z,100.00
2022-10-19T04:51:22.704Z,100.00
2022-10-19T04:54:25.510Z,100.00
2022-10-19T04:57:29.039Z,100.00
2022-10-19T05:00:33.089Z,100.00
2022-10-19T05:03:35.953Z,100.00
2022-10-19T05:06:38.624Z,100.00
2022-10-19T05:09:41.096Z,100.00
2022-10-19T05:12:43.870Z,100.00
2022-10-19T05:15:56.428Z,100.00
2022-10-19T05:18:59.745Z,100.00
2022-10-19T05:22:02.276Z,100.00
2022-10-19T05:25:06.423Z,100.00
2022-10-19T05:28:09.006Z,100.00
2022-10-19T05:31:18.499Z,100.00
2022-10-19T05:34:21.180Z,100.00
2022-10-19T05:37:25.697Z,100.00
2022-10-19T05:40:28.558Z,100.00
2022-10-19T05:43:31.324Z,100.00
2022-10-19T05:46:34.755Z,100.00
2022-10-19T05:49:39.992Z,100.00
2022-10-19T05:52:42.790Z,100.00
2022-10-19T05:55:45.696Z,100.00
2022-10-19T05:58:49.438Z,100.00
2022-10-19T06:01:52.227Z,100.00
2022-10-19T06:04:54.978Z,100.00
2022-10-19T06:07:57.475Z,100.00
2022-10-19T06:11:12.294Z,100.00
2022-10-19T06:14:16.171Z,100.00
2022-10-19T06:17:18.997Z,100.00
2022-10-19T06:20:22.378Z,100.00
2022-10-19T06:23:25.258Z,100.00
2022-10-19T06:26:28.847Z,100.00
2022-10-19T06:29:32.296Z,100.00
2022-10-19T06:32:34.811Z,100.00
2022-10-19T06:35:38.394Z,100.00
2022-10-19T06:38:41.989Z,100.00
2022-10-19T06:41:44.843Z,100.00
2022-10-19T06:44:49.212Z,100.00
2022-10-19T06:47:52.203Z,100.00
2022-10-19T06:50:59.345Z,98.93
2022-10-19T06:54:02.246Z,97.74
2022-10-19T06:57:04.732Z,97.13
2022-10-19T07:00:09.093Z,95.69
2022-10-19T07:03:11.810Z,94.18
2022-10-19T07:06:14.739Z,92.04
2022-10-19T07:09:19.764Z,91.74
2022-10-19T07:12:22.954Z,90.64
2022-10-19T07:15:25.772Z,89.81
2022-10-19T07:18:28.831Z,88.50
2022-10-19T07:21:31.495Z,87.12
2022-10-19T07:24:34.323Z,85.21
2022-10-19T07:27:38.975Z,81.63
2022-10-19T07:30:42.237Z,79.62
2022-10-19T07:33:44.984Z,79.34
2022-10-19T07:36:48.186Z,80.69
2022-10-19T07:39:50.672Z,79.23
2022-10-19T07:42:53.696Z,80.53
2022-10-19T07:46:07.671Z,79.28
2022-10-19T07:49:14.138Z,77.40
2022-10-19T07:52:16.985Z,75.74
2022-10-19T07:55:19.915Z,76.48
2022-10-19T07:58:22.593Z,76.06
2022-10-19T08:01:29.029Z,75.62
2022-10-19T08:04:55.968Z,76.35
2022-10-19T08:07:54.692Z,73.84
2022-10-19T08:11:12.375Z,74.80
2022-10-19T08:14:14.886Z,72.92
2022-10-19T08:17:17.898Z,66.94
2022-10-19T08:20:20.643Z,69.00
2022-10-19T08:23:23.827Z,69.99
2022-10-19T08:26:29.928Z,69.20
2022-10-19T08:29:32.780Z,69.71
2022-10-19T08:32:35.603Z,69.60
2022-10-19T08:35:38.908Z,70.83
2022-10-19T08:38:45.141Z,70.62
2022-10-19T08:41:53.875Z,69.93
2022-10-19T08:45:15.523Z,68.14
2022-10-19T08:48:33.797Z,68.25
2022-10-19T08:51:39.977Z,69.11
2022-10-19T08:54:57.268Z,68.12
2022-10-19T08:58:22.942Z,67.92
2022-10-19T09:01:41.030Z,68.04
2022-10-19T09:04:53.912Z,65.19
2022-10-19T09:07:57.338Z,66.38
2022-10-19T09:11:01.182Z,65.32
2022-10-19T09:14:25.793Z,65.29
2022-10-19T09:17:28.914Z,62.91
2022-10-19T09:20:41.310Z,63.24
2022-10-19T09:23:55.230Z,63.99
2022-10-19T09:27:00.980Z,63.62
2022-10-19T09:30:20.137Z,64.86
2022-10-19T09:33:35.550Z,64.02
2022-10-19T09:36:51.557Z,62.94
2022-10-19T09:39:56.160Z,61.22
2022-10-19T09:43:02.945Z,59.87
2022-10-19T09:46:20.643Z,58.34
2022-10-19T09:49:41.772Z,57.62
2022-10-19T09:52:46.916Z,56.88
2022-10-19T09:56:09.412Z,55.89
2022-10-19T09:59:22.968Z,54.44
2022-10-19T10:02:32.536Z,55.93
2022-10-19T10:05:38.485Z,53.69
2022-10-19T10:08:48.522Z,52.82
2022-10-19T10:11:51.980Z,51.94
2022-10-19T10:14:56.433Z,53.07
2022-10-19T10:17:59.505Z,53.57
2022-10-19T10:21:25.118Z,52.05
2022-10-19T10:24:31.640Z,51.06
2022-10-19T10:27:38.286Z,50.55
2022-10-19T10:30:41.967Z,49.16
2022-10-19T10:34:12.126Z,51.82
2022-10-19T10:37:44.147Z,50.20
2022-10-19T10:41:01.343Z,51.47
2022-10-19T10:44:08.959Z,49.41
2022-10-19T10:47:16.673Z,49.19
2022-10-19T10:50:23.188Z,45.92
2022-10-19T10:53:43.238Z,47.47
2022-10-19T10:57:06.210Z,48.20
2022-10-19T11:00:13.228Z,48.48
2022-10-19T11:03:30.735Z,49.18
2022-10-19T11:06:43.735Z,48.11
2022-10-19T11:09:58.664Z,47.58
2022-10-19T11:13:07.047Z,49.14
2022-10-19T11:16:16.595Z,48.49
2022-10-19T11:19:27.459Z,47.60
2022-10-19T11:22:41.485Z,44.41
2022-10-19T11:26:07.841Z,44.34
2022-10-19T11:29:20.028Z,45.25
2022-10-19T11:33:04.509Z,45.67
2022-10-19T11:36:25.841Z,44.56
2022-10-19T11:39:37.314Z,45.62
2022-10-19T11:43:19.659Z,46.91
2022-10-19T11:46:29.784Z,46.66
2022-10-19T11:49:51.740Z,48.16
2022-10-19T11:53:19.342Z,47.54
2022-10-19T11:57:09.380Z,47.72
2022-10-19T12:00:38.169Z,48.12
2022-10-19T12:04:03.510Z,46.72
2022-10-19T12:07:30.058Z,45.75
2022-10-19T12:10:55.722Z,45.80
2022-10-19T12:14:06.042Z,45.91
2022-10-19T12:17:24.280Z,45.98
2022-10-19T12:20:32.081Z,45.78
2022-10-19T12:23:38.992Z,44.71
2022-10-19T12:26:43.038Z,45.24
2022-10-19T12:29:49.640Z,45.44
2022-10-19T12:33:01.072Z,45.20
2022-10-19T12:36:42.091Z,44.49
2022-10-19T12:40:00.428Z,43.67
2022-10-19T12:43:21.895Z,43.13
2022-10-19T12:46:49.836Z,43.92
2022-10-19T12:49:56.820Z,43.56
2022-10-19T12:52:59.384Z,43.37
2022-10-19T12:56:10.097Z,42.62
2022-10-19T12:59:32.233Z,41.78
2022-10-19T13:02:39.064Z,38.23
2022-10-19T13:05:42.255Z,38.55
2022-10-19T13:08:48.442Z,36.22
2022-10-19T13:12:14.781Z,33.82
2022-10-19T13:15:36.065Z,29.08
2022-10-19T13:19:14.078Z,24.64
2022-10-19T13:22:26.775Z,21.05
2022-10-19T13:25:36.727Z,19.32
2022-10-19T13:28:51.950Z,17.39
2022-10-19T13:31:54.593Z,16.85
2022-10-19T13:35:22.484Z,15.83
2022-10-19T13:38:57.359Z,14.47
2022-10-19T13:42:00.294Z,14.49
2022-10-19T13:45:03.094Z,13.09
2022-10-19T13:48:22.596Z,12.95
2022-10-19T13:51:34.342Z,14.45
2022-10-19T13:54:41.836Z,15.11
2022-10-19T13:58:22.212Z,14.69
2022-10-19T14:01:37.241Z,14.76
2022-10-19T14:04:54.993Z,15.36
2022-10-19T14:08:29.413Z,13.97
2022-10-19T14:11:40.432Z,14.42
2022-10-19T14:14:44.698Z,15.01
2022-10-19T14:17:47.708Z,15.68
2022-10-19T14:21:00.892Z,17.00
2022-10-19T14:24:20.195Z,18.47
2022-10-19T14:27:24.771Z,22.70
2022-10-19T14:30:32.259Z,26.95
2022-10-19T14:33:39.684Z,30.21
2022-10-19T14:36:48.328Z,34.12
2022-10-19T14:40:00.445Z,36.76
2022-10-19T14:43:03.189Z,39.00
2022-10-19T14:46:08.703Z,40.60
2022-10-19T14:49:11.903Z,42.01
2022-10-19T14:52:32.037Z,43.99
2022-10-19T14:55:39.639Z,43.89
2022-10-19T14:58:55.862Z,44.75
2022-10-19T15:02:01.279Z,45.80
2022-10-19T15:05:05.899Z,45.37
2022-10-19T15:08:16.849Z,45.97
2022-10-19T15:11:49.787Z,46.93
2022-10-19T15:14:53.019Z,47.85
2022-10-19T15:17:56.726Z,48.54
2022-10-19T15:21:12.286Z,49.09
2022-10-19T15:24:27.207Z,48.50
